KRQO

El Reno Regional Airport

El Reno, Oklahoma, USA
METAR KRQO 242055Z AUTO 18012KT BKN023 25/20 A2986 RMK AO2 PWINO T02520203
Observed Flight Rules
Sep-24 @ 20:55 UTC (28 minutes ago)
Wind Clouds
180° at 12 knots
  • Broken at 2,300' AGL
Temperatures Readings
Current 25°C / 77°F
Dewpoint 20°C / 68°F
Humidity 74%
Altimeter 29.86" Hg
Pressure 1011 hPa
Elevation 432
METAR KRQO 242055Z AUTO 18012KT BKN023 25/20 A2986 RMK AO2 PWINO T02520203
Observed Flight Rules
Sep-24 @ 20:55 UTC
(28 minutes ago)
Wind
180° at 12 knots
Clouds
  • Broken at 2,300' AGL
Temperature Dewpoint
25°C / 77°F 20°C / 68°F
Humidity Altimeter Pressure
74% 29.86" Hg 1011 hPa